sensor_id;sensor_type;location;lat;lon;timestamp;pressure;altitude;pressure_sealevel;temperature;humidity
75196;BME280;63773;42.282;22.782;2023-04-21T00:01:46;96139.00;;;7.68;73.91
75196;BME280;63773;42.282;22.782;2023-04-21T00:04:32;96136.72;;;7.60;74.11
75196;BME280;63773;42.282;22.782;2023-04-21T00:06:57;96126.28;;;7.74;72.61
75196;BME280;63773;42.282;22.782;2023-04-21T00:09:26;96130.38;;;7.76;72.50
75196;BME280;63773;42.282;22.782;2023-04-21T00:11:51;96100.09;;;7.51;72.74
75196;BME280;63773;42.282;22.782;2023-04-21T00:14:16;96118.19;;;7.40;72.14
75196;BME280;63773;42.282;22.782;2023-04-21T00:16:42;96132.19;;;7.11;72.39
75196;BME280;63773;42.282;22.782;2023-04-21T00:19:07;96130.03;;;6.46;75.05
75196;BME280;63773;42.282;22.782;2023-04-21T00:21:33;96088.25;;;6.52;74.08
75196;BME280;63773;42.282;22.782;2023-04-21T00:23:59;96127.91;;;6.81;74.15
75196;BME280;63773;42.282;22.782;2023-04-21T00:26:24;96023.53;;;6.04;74.30
75196;BME280;63773;42.282;22.782;2023-04-21T00:28:49;96123.03;;;6.83;74.34
75196;BME280;63773;42.282;22.782;2023-04-21T00:31:15;96108.03;;;6.64;75.01
75196;BME280;63773;42.282;22.782;2023-04-21T00:33:40;96132.59;;;6.86;74.24
75196;BME280;63773;42.282;22.782;2023-04-21T00:36:06;96091.22;;;6.84;74.13
75196;BME280;63773;42.282;22.782;2023-04-21T00:38:31;96115.88;;;6.94;73.73
75196;BME280;63773;42.282;22.782;2023-04-21T00:40:57;96134.31;;;6.92;73.96
75196;BME280;63773;42.282;22.782;2023-04-21T00:43:22;96123.13;;;7.05;73.48
75196;BME280;63773;42.282;22.782;2023-04-21T00:45:50;96123.09;;;7.22;72.62
75196;BME280;63773;42.282;22.782;2023-04-21T00:48:15;96116.84;;;7.05;73.28
75196;BME280;63773;42.282;22.782;2023-04-21T00:50:41;96103.34;;;6.15;74.37
75196;BME280;63773;42.282;22.782;2023-04-21T00:53:07;96119.38;;;6.45;73.94
75196;BME280;63773;42.282;22.782;2023-04-21T00:55:34;96122.94;;;6.62;73.99
75196;BME280;63773;42.282;22.782;2023-04-21T00:57:59;96119.88;;;6.58;74.25
75196;BME280;63773;42.282;22.782;2023-04-21T01:00:26;96117.50;;;6.62;74.10
75196;BME280;63773;42.282;22.782;2023-04-21T01:02:51;96120.66;;;6.70;73.92
75196;BME280;63773;42.282;22.782;2023-04-21T01:05:17;96121.28;;;6.77;73.55
75196;BME280;63773;42.282;22.782;2023-04-21T01:07:43;96120.16;;;6.57;74.11
75196;BME280;63773;42.282;22.782;2023-04-21T01:10:09;96116.09;;;6.59;74.15
75196;BME280;63773;42.282;22.782;2023-04-21T01:12:42;96118.09;;;6.80;73.76
75196;BME280;63773;42.282;22.782;2023-04-21T01:15:09;96113.66;;;6.74;74.09
75196;BME280;63773;42.282;22.782;2023-04-21T01:17:35;96126.09;;;6.70;74.32
75196;BME280;63773;42.282;22.782;2023-04-21T01:20:07;96118.41;;;6.67;74.15
75196;BME280;63773;42.282;22.782;2023-04-21T01:22:36;96118.28;;;6.74;72.94
75196;BME280;63773;42.282;22.782;2023-04-21T01:25:01;96111.31;;;6.66;73.96
75196;BME280;63773;42.282;22.782;2023-04-21T01:27:28;96115.88;;;6.32;74.48
75196;BME280;63773;42.282;22.782;2023-04-21T01:29:54;96111.47;;;6.26;75.02
75196;BME280;63773;42.282;22.782;2023-04-21T01:32:22;96105.91;;;6.21;74.82
75196;BME280;63773;42.282;22.782;2023-04-21T01:34:48;96053.25;;;5.94;74.12
75196;BME280;63773;42.282;22.782;2023-04-21T01:37:23;96091.34;;;6.27;73.95
75196;BME280;63773;42.282;22.782;2023-04-21T01:39:51;96097.13;;;6.31;74.12
75196;BME280;63773;42.282;22.782;2023-04-21T01:42:19;96118.44;;;6.22;75.60
75196;BME280;63773;42.282;22.782;2023-04-21T01:44:45;96102.22;;;6.27;75.43
75196;BME280;63773;42.282;22.782;2023-04-21T01:47:12;96118.91;;;6.48;74.65
75196;BME280;63773;42.282;22.782;2023-04-21T01:49:37;96113.31;;;6.54;73.86
75196;BME280;63773;42.282;22.782;2023-04-21T01:52:03;96101.31;;;6.38;73.28
75196;BME280;63773;42.282;22.782;2023-04-21T01:54:29;96103.38;;;6.31;73.60
75196;BME280;63773;42.282;22.782;2023-04-21T01:56:54;96097.53;;;6.23;74.00
75196;BME280;63773;42.282;22.782;2023-04-21T01:59:20;96115.03;;;6.15;75.40
75196;BME280;63773;42.282;22.782;2023-04-21T02:01:45;96076.34;;;6.08;74.86
75196;BME280;63773;42.282;22.782;2023-04-21T02:04:11;96113.44;;;6.31;74.46
75196;BME280;63773;42.282;22.782;2023-04-21T02:06:36;96105.69;;;6.23;75.61
75196;BME280;63773;42.282;22.782;2023-04-21T02:09:02;96110.88;;;6.41;74.85
75196;BME280;63773;42.282;22.782;2023-04-21T02:11:27;96063.56;;;6.09;74.71
75196;BME280;63773;42.282;22.782;2023-04-21T02:13:54;96101.72;;;6.30;75.72
75196;BME280;63773;42.282;22.782;2023-04-21T02:16:21;96104.72;;;6.01;76.68
75196;BME280;63773;42.282;22.782;2023-04-21T02:18:54;96073.03;;;6.06;75.88
75196;BME280;63773;42.282;22.782;2023-04-21T02:21:24;96106.34;;;6.30;74.89
75196;BME280;63773;42.282;22.782;2023-04-21T02:23:51;96101.88;;;6.24;74.87
75196;BME280;63773;42.282;22.782;2023-04-21T02:26:17;96108.91;;;6.36;73.79
75196;BME280;63773;42.282;22.782;2023-04-21T02:28:42;96100.66;;;6.31;74.34
75196;BME280;63773;42.282;22.782;2023-04-21T02:31:08;96083.50;;;6.14;74.07
75196;BME280;63773;42.282;22.782;2023-04-21T02:33:33;96098.38;;;5.95;73.65
75196;BME280;63773;42.282;22.782;2023-04-21T02:35:59;96121.00;;;6.01;74.07
75196;BME280;63773;42.282;22.782;2023-04-21T02:38:24;96112.91;;;5.77;74.10
75196;BME280;63773;42.282;22.782;2023-04-21T02:40:50;96085.47;;;5.51;74.90
75196;BME280;63773;42.282;22.782;2023-04-21T02:43:16;96123.88;;;5.08;76.14
75196;BME280;63773;42.282;22.782;2023-04-21T02:45:41;96121.50;;;5.35;75.67
75196;BME280;63773;42.282;22.782;2023-04-21T02:48:07;96080.72;;;4.72;77.66
75196;BME280;63773;42.282;22.782;2023-04-21T02:50:32;96114.19;;;5.12;76.90
75196;BME280;63773;42.282;22.782;2023-04-21T02:52:58;96117.25;;;5.39;76.62
75196;BME280;63773;42.282;22.782;2023-04-21T02:55:23;96123.09;;;5.59;75.73
75196;BME280;63773;42.282;22.782;2023-04-21T02:57:49;96125.31;;;5.73;75.03
75196;BME280;63773;42.282;22.782;2023-04-21T03:00:15;96126.03;;;5.69;74.51
75196;BME280;63773;42.282;22.782;2023-04-21T03:02:41;96132.22;;;5.53;74.61
75196;BME280;63773;42.282;22.782;2023-04-21T03:05:07;96140.00;;;5.49;75.31
75196;BME280;63773;42.282;22.782;2023-04-21T03:07:33;96134.06;;;5.64;75.43
75196;BME280;63773;42.282;22.782;2023-04-21T03:09:58;96129.69;;;5.63;75.72
75196;BME280;63773;42.282;22.782;2023-04-21T03:12:23;96131.22;;;5.70;74.54
75196;BME280;63773;42.282;22.782;2023-04-21T03:14:49;96134.66;;;5.54;74.96
75196;BME280;63773;42.282;22.782;2023-04-21T03:17:14;96137.91;;;5.16;76.02
75196;BME280;63773;42.282;22.782;2023-04-21T03:19:40;96086.84;;;4.79;76.75
75196;BME280;63773;42.282;22.782;2023-04-21T03:22:05;96141.69;;;5.27;76.16
75196;BME280;63773;42.282;22.782;2023-04-21T03:24:31;96135.78;;;5.07;76.23
75196;BME280;63773;42.282;22.782;2023-04-21T03:26:56;96117.03;;;5.05;75.86
75196;BME280;63773;42.282;22.782;2023-04-21T03:29:22;96099.94;;;4.93;76.09
75196;BME280;63773;42.282;22.782;2023-04-21T03:31:48;96138.59;;;5.23;75.43
75196;BME280;63773;42.282;22.782;2023-04-21T03:34:13;96127.66;;;5.07;75.05
75196;BME280;63773;42.282;22.782;2023-04-21T03:36:39;96144.75;;;5.19;75.74
75196;BME280;63773;42.282;22.782;2023-04-21T03:39:04;96137.44;;;5.08;76.41
75196;BME280;63773;42.282;22.782;2023-04-21T03:41:30;96099.34;;;5.03;75.49
75196;BME280;63773;42.282;22.782;2023-04-21T03:43:57;96139.06;;;5.44;75.35
75196;BME280;63773;42.282;22.782;2023-04-21T03:46:22;96142.97;;;5.24;76.17
75196;BME280;63773;42.282;22.782;2023-04-21T03:48:48;96144.28;;;5.22;75.47
75196;BME280;63773;42.282;22.782;2023-04-21T03:51:13;96131.19;;;5.19;74.89
75196;BME280;63773;42.282;22.782;2023-04-21T03:53:39;96142.41;;;4.99;75.60
75196;BME280;63773;42.282;22.782;2023-04-21T03:56:05;96111.94;;;4.86;75.88
75196;BME280;63773;42.282;22.782;2023-04-21T03:58:30;96148.63;;;5.00;75.81
75196;BME280;63773;42.282;22.782;2023-04-21T04:00:56;96130.34;;;5.07;75.72
75196;BME280;63773;42.282;22.782;2023-04-21T04:03:21;96119.97;;;5.15;75.85
75196;BME280;63773;42.282;22.782;2023-04-21T04:05:46;96157.34;;;5.37;75.17
75196;BME280;63773;42.282;22.782;2023-04-21T04:08:12;96158.06;;;5.32;76.75
75196;BME280;63773;42.282;22.782;2023-04-21T04:10:37;96152.06;;;5.30;76.72
75196;BME280;63773;42.282;22.782;2023-04-21T04:13:03;96161.25;;;5.29;76.02
75196;BME280;63773;42.282;22.782;2023-04-21T04:15:28;96165.00;;;5.28;75.61
75196;BME280;63773;42.282;22.782;2023-04-21T04:17:54;96163.50;;;5.32;75.66
75196;BME280;63773;42.282;22.782;2023-04-21T04:20:20;96172.22;;;5.34;76.04
75196;BME280;63773;42.282;22.782;2023-04-21T04:22:45;96176.22;;;5.32;75.40
75196;BME280;63773;42.282;22.782;2023-04-21T04:25:11;96185.31;;;5.37;76.38
75196;BME280;63773;42.282;22.782;2023-04-21T04:27:38;96184.56;;;4.84;78.36
75196;BME280;63773;42.282;22.782;2023-04-21T04:30:05;96155.94;;;5.34;76.92
75196;BME280;63773;42.282;22.782;2023-04-21T04:32:31;96192.72;;;5.53;77.00
75196;BME280;63773;42.282;22.782;2023-04-21T04:34:57;96158.66;;;5.34;77.47
75196;BME280;63773;42.282;22.782;2023-04-21T04:37:23;96192.03;;;5.58;76.85
75196;BME280;63773;42.282;22.782;2023-04-21T04:39:53;96185.84;;;5.74;75.85
75196;BME280;63773;42.282;22.782;2023-04-21T04:42:18;96191.25;;;6.09;76.22
75196;BME280;63773;42.282;22.782;2023-04-21T04:44:44;96191.94;;;6.16;75.13
75196;BME280;63773;42.282;22.782;2023-04-21T04:47:11;96194.31;;;6.12;76.16
75196;BME280;63773;42.282;22.782;2023-04-21T04:49:36;96194.59;;;6.27;75.48
75196;BME280;63773;42.282;22.782;2023-04-21T04:52:02;96190.97;;;6.50;75.17
75196;BME280;63773;42.282;22.782;2023-04-21T04:54:28;96137.56;;;6.44;74.12
75196;BME280;63773;42.282;22.782;2023-04-21T04:56:54;96191.22;;;6.49;74.40
75196;BME280;63773;42.282;22.782;2023-04-21T04:59:20;96192.69;;;6.39;74.58
75196;BME280;63773;42.282;22.782;2023-04-21T05:01:45;96190.81;;;5.65;77.31
75196;BME280;63773;42.282;22.782;2023-04-21T05:04:10;96187.44;;;6.10;77.26
75196;BME280;63773;42.282;22.782;2023-04-21T05:06:40;96194.09;;;6.42;76.63
75196;BME280;63773;42.282;22.782;2023-04-21T05:09:06;96186.75;;;6.71;75.59
75196;BME280;63773;42.282;22.782;2023-04-21T05:11:31;96187.66;;;6.76;74.80
75196;BME280;63773;42.282;22.782;2023-04-21T05:13:56;96189.56;;;7.09;75.39
75196;BME280;63773;42.282;22.782;2023-04-21T05:16:22;96188.91;;;7.35;74.99
75196;BME280;63773;42.282;22.782;2023-04-21T05:18:47;96190.56;;;7.36;75.08
75196;BME280;63773;42.282;22.782;2023-04-21T05:21:24;96179.50;;;7.26;75.28
75196;BME280;63773;42.282;22.782;2023-04-21T05:23:54;96186.84;;;7.81;74.06
75196;BME280;63773;42.282;22.782;2023-04-21T05:26:20;96195.13;;;7.69;74.20
75196;BME280;63773;42.282;22.782;2023-04-21T05:28:45;96192.53;;;8.18;73.83
75196;BME280;63773;42.282;22.782;2023-04-21T05:31:11;96169.31;;;8.15;74.76
75196;BME280;63773;42.282;22.782;2023-04-21T05:33:36;96182.78;;;8.43;72.86
75196;BME280;63773;42.282;22.782;2023-04-21T05:36:06;96185.53;;;8.75;73.04
75196;BME280;63773;42.282;22.782;2023-04-21T05:38:31;96188.75;;;8.94;71.95
75196;BME280;63773;42.282;22.782;2023-04-21T05:40:57;96180.00;;;8.92;71.65
75196;BME280;63773;42.282;22.782;2023-04-21T05:43:22;96179.78;;;8.98;71.76
75196;BME280;63773;42.282;22.782;2023-04-21T05:45:48;96186.09;;;9.04;71.34
75196;BME280;63773;42.282;22.782;2023-04-21T05:48:13;96162.50;;;9.19;70.99
75196;BME280;63773;42.282;22.782;2023-04-21T05:50:39;96189.06;;;9.66;70.06
75196;BME280;63773;42.282;22.782;2023-04-21T05:53:04;96185.63;;;9.44;71.02
75196;BME280;63773;42.282;22.782;2023-04-21T05:55:29;96168.22;;;9.18;71.30
75196;BME280;63773;42.282;22.782;2023-04-21T05:57:55;96177.13;;;8.77;72.51
75196;BME280;63773;42.282;22.782;2023-04-21T06:00:21;96174.28;;;8.66;73.47
75196;BME280;63773;42.282;22.782;2023-04-21T06:02:46;96158.19;;;9.28;71.67
75196;BME280;63773;42.282;22.782;2023-04-21T06:05:11;96018.78;;;8.30;72.48
75196;BME280;63773;42.282;22.782;2023-04-21T06:07:37;96159.25;;;9.22;72.29
75196;BME280;63773;42.282;22.782;2023-04-21T06:10:02;96138.78;;;9.67;71.10
75196;BME280;63773;42.282;22.782;2023-04-21T06:12:28;96168.69;;;10.40;70.68
75196;BME280;63773;42.282;22.782;2023-04-21T06:14:53;96159.50;;;10.67;70.42
75196;BME280;63773;42.282;22.782;2023-04-21T06:17:22;96125.28;;;10.74;69.00
75196;BME280;63773;42.282;22.782;2023-04-21T06:19:48;96143.38;;;11.36;67.71
75196;BME280;63773;42.282;22.782;2023-04-21T06:22:18;96142.81;;;11.54;66.55
75196;BME280;63773;42.282;22.782;2023-04-21T06:24:44;96156.53;;;11.44;68.18
75196;BME280;63773;42.282;22.782;2023-04-21T06:27:11;96079.84;;;11.14;66.89
75196;BME280;63773;42.282;22.782;2023-04-21T06:29:37;96157.59;;;11.58;66.24
75196;BME280;63773;42.282;22.782;2023-04-21T06:32:03;96158.41;;;11.64;66.47
75196;BME280;63773;42.282;22.782;2023-04-21T06:34:29;96154.59;;;11.70;62.88
75196;BME280;63773;42.282;22.782;2023-04-21T06:36:54;96140.59;;;11.81;62.82
75196;BME280;63773;42.282;22.782;2023-04-21T06:39:20;96125.25;;;11.90;61.70
75196;BME280;63773;42.282;22.782;2023-04-21T06:41:45;96147.81;;;12.41;62.83
75196;BME280;63773;42.282;22.782;2023-04-21T06:44:11;96156.94;;;12.81;63.43
75196;BME280;63773;42.282;22.782;2023-04-21T06:46:39;96145.34;;;12.89;61.20
75196;BME280;63773;42.282;22.782;2023-04-21T06:49:05;96143.88;;;13.06;61.34
75196;BME280;63773;42.282;22.782;2023-04-21T06:51:31;96140.28;;;13.06;61.55
75196;BME280;63773;42.282;22.782;2023-04-21T06:53:56;96139.81;;;13.32;60.27
75196;BME280;63773;42.282;22.782;2023-04-21T06:56:22;96142.41;;;13.81;59.31
75196;BME280;63773;42.282;22.782;2023-04-21T06:58:47;96151.75;;;13.85;60.01
75196;BME280;63773;42.282;22.782;2023-04-21T07:01:12;96132.50;;;13.23;59.75
75196;BME280;63773;42.282;22.782;2023-04-21T07:03:38;96141.47;;;13.34;58.92
75196;BME280;63773;42.282;22.782;2023-04-21T07:06:03;96131.75;;;13.46;59.62
75196;BME280;63773;42.282;22.782;2023-04-21T07:08:29;96146.13;;;13.67;58.61
75196;BME280;63773;42.282;22.782;2023-04-21T07:10:54;96142.78;;;13.99;58.45
75196;BME280;63773;42.282;22.782;2023-04-21T07:13:20;96070.44;;;13.74;56.63
75196;BME280;63773;42.282;22.782;2023-04-21T07:15:45;96136.19;;;14.47;56.55
75196;BME280;63773;42.282;22.782;2023-04-21T07:18:11;96133.88;;;14.35;54.94
75196;BME280;63773;42.282;22.782;2023-04-21T07:20:36;96137.53;;;14.02;53.76
75196;BME280;63773;42.282;22.782;2023-04-21T07:23:02;96124.22;;;13.85;54.00
75196;BME280;63773;42.282;22.782;2023-04-21T07:25:27;96130.44;;;13.39;55.98
75196;BME280;63773;42.282;22.782;2023-04-21T07:27:53;96032.06;;;13.02;58.62
75196;BME280;63773;42.282;22.782;2023-04-21T07:30:18;96122.94;;;14.25;55.48
75196;BME280;63773;42.282;22.782;2023-04-21T07:32:43;96126.97;;;14.57;55.60
75196;BME280;63773;42.282;22.782;2023-04-21T07:35:10;96117.03;;;14.98;54.86
75196;BME280;63773;42.282;22.782;2023-04-21T07:37:36;96104.09;;;15.31;53.36
75196;BME280;63773;42.282;22.782;2023-04-21T07:40:01;96121.25;;;15.46;54.11
75196;BME280;63773;42.282;22.782;2023-04-21T07:42:28;96114.28;;;15.95;54.28
75196;BME280;63773;42.282;22.782;2023-04-21T07:44:53;96101.22;;;15.87;54.32
75196;BME280;63773;42.282;22.782;2023-04-21T07:47:20;96114.13;;;16.05;53.21
75196;BME280;63773;42.282;22.782;2023-04-21T07:49:46;96115.78;;;16.33;52.92
75196;BME280;63773;42.282;22.782;2023-04-21T07:52:11;96079.78;;;16.25;53.35
75196;BME280;63773;42.282;22.782;2023-04-21T07:54:36;96101.34;;;16.36;50.00
75196;BME280;63773;42.282;22.782;2023-04-21T07:57:02;96109.28;;;16.51;52.67
75196;BME280;63773;42.282;22.782;2023-04-21T07:59:28;96109.28;;;16.92;51.42
75196;BME280;63773;42.282;22.782;2023-04-21T08:01:53;96027.38;;;16.83;49.81
75196;BME280;63773;42.282;22.782;2023-04-21T08:04:19;96091.72;;;17.33;49.72
75196;BME280;63773;42.282;22.782;2023-04-21T08:06:44;96096.88;;;17.70;48.77
75196;BME280;63773;42.282;22.782;2023-04-21T08:09:10;96088.69;;;17.87;47.33
75196;BME280;63773;42.282;22.782;2023-04-21T08:11:35;96072.06;;;17.87;48.06
75196;BME280;63773;42.282;22.782;2023-04-21T08:14:01;96091.03;;;18.02;44.34
75196;BME280;63773;42.282;22.782;2023-04-21T08:16:26;96082.09;;;18.05;44.50
75196;BME280;63773;42.282;22.782;2023-04-21T08:18:52;96082.31;;;18.17;45.67
75196;BME280;63773;42.282;22.782;2023-04-21T08:21:17;96078.63;;;18.30;45.54
75196;BME280;63773;42.282;22.782;2023-04-21T08:23:42;96076.19;;;18.37;46.86
75196;BME280;63773;42.282;22.782;2023-04-21T08:26:08;96062.31;;;18.37;44.70
75196;BME280;63773;42.282;22.782;2023-04-21T08:28:33;96055.63;;;18.78;44.41
75196;BME280;63773;42.282;22.782;2023-04-21T08:30:59;96065.44;;;19.01;44.59
75196;BME280;63773;42.282;22.782;2023-04-21T08:33:26;96037.03;;;19.21;44.28
75196;BME280;63773;42.282;22.782;2023-04-21T08:35:52;96022.97;;;19.52;43.51
75196;BME280;63773;42.282;22.782;2023-04-21T08:38:17;96046.34;;;19.42;41.86
75196;BME280;63773;42.282;22.782;2023-04-21T08:40:43;96053.69;;;19.21;40.15
75196;BME280;63773;42.282;22.782;2023-04-21T08:43:08;96052.22;;;18.98;42.22
75196;BME280;63773;42.282;22.782;2023-04-21T08:45:34;96055.81;;;18.98;39.39
75196;BME280;63773;42.282;22.782;2023-04-21T08:48:01;96053.03;;;19.07;40.21
75196;BME280;63773;42.282;22.782;2023-04-21T08:50:29;96048.97;;;19.13;41.19
75196;BME280;63773;42.282;22.782;2023-04-21T08:52:57;96014.38;;;19.11;40.24
75196;BME280;63773;42.282;22.782;2023-04-21T08:55:25;96046.81;;;18.93;39.43
75196;BME280;63773;42.282;22.782;2023-04-21T08:57:51;96039.63;;;19.35;39.84
75196;BME280;63773;42.282;22.782;2023-04-21T09:00:17;96033.63;;;19.41;38.59
75196;BME280;63773;42.282;22.782;2023-04-21T09:02:52;96025.94;;;19.13;41.74
75196;BME280;63773;42.282;22.782;2023-04-21T09:05:23;96039.81;;;18.87;42.04
75196;BME280;63773;42.282;22.782;2023-04-21T09:07:49;96025.59;;;18.54;41.17
75196;BME280;63773;42.282;22.782;2023-04-21T09:10:21;96007.19;;;18.10;41.80
75196;BME280;63773;42.282;22.782;2023-04-21T09:12:50;96038.28;;;18.07;41.90
75196;BME280;63773;42.282;22.782;2023-04-21T09:15:19;96040.00;;;18.25;42.57
75196;BME280;63773;42.282;22.782;2023-04-21T09:17:44;96000.56;;;17.80;42.70
75196;BME280;63773;42.282;22.782;2023-04-21T09:20:15;96038.78;;;18.66;42.55
75196;BME280;63773;42.282;22.782;2023-04-21T09:22:41;96037.19;;;18.65;41.69
75196;BME280;63773;42.282;22.782;2023-04-21T09:25:06;96033.25;;;18.74;41.59
75196;BME280;63773;42.282;22.782;2023-04-21T09:27:35;96033.41;;;18.69;41.48
75196;BME280;63773;42.282;22.782;2023-04-21T09:30:05;96029.69;;;19.08;42.38
75196;BME280;63773;42.282;22.782;2023-04-21T09:32:38;96022.50;;;19.58;40.52
75196;BME280;63773;42.282;22.782;2023-04-21T09:35:07;96003.22;;;19.53;39.46
75196;BME280;63773;42.282;22.782;2023-04-21T09:37:34;96028.69;;;20.02;41.14
75196;BME280;63773;42.282;22.782;2023-04-21T09:40:00;96014.66;;;19.98;40.52
75196;BME280;63773;42.282;22.782;2023-04-21T09:42:31;96025.94;;;20.02;37.92
75196;BME280;63773;42.282;22.782;2023-04-21T09:44:57;96017.31;;;20.33;40.33
75196;BME280;63773;42.282;22.782;2023-04-21T09:47:22;96014.50;;;20.91;40.50
75196;BME280;63773;42.282;22.782;2023-04-21T09:49:51;95988.25;;;21.21;40.62
75196;BME280;63773;42.282;22.782;2023-04-21T09:52:20;96022.31;;;21.18;36.35
75196;BME280;63773;42.282;22.782;2023-04-21T09:54:54;96012.81;;;21.19;36.22
75196;BME280;63773;42.282;22.782;2023-04-21T09:57:24;96008.97;;;20.62;37.88
75196;BME280;63773;42.282;22.782;2023-04-21T09:59:54;96015.19;;;20.59;38.17
75196;BME280;63773;42.282;22.782;2023-04-21T10:02:24;96008.03;;;20.29;37.41
75196;BME280;63773;42.282;22.782;2023-04-21T10:04:50;96001.75;;;20.02;38.52
75196;BME280;63773;42.282;22.782;2023-04-21T10:07:16;96011.28;;;19.84;39.60
75196;BME280;63773;42.282;22.782;2023-04-21T10:09:48;96001.03;;;19.76;40.78
75196;BME280;63773;42.282;22.782;2023-04-21T10:12:16;96007.97;;;19.99;41.18
75196;BME280;63773;42.282;22.782;2023-04-21T10:14:42;95994.34;;;19.69;39.34
75196;BME280;63773;42.282;22.782;2023-04-21T10:17:09;95997.00;;;19.56;38.89
75196;BME280;63773;42.282;22.782;2023-04-21T10:19:36;96002.13;;;20.80;38.69
75196;BME280;63773;42.282;22.782;2023-04-21T10:22:06;95995.75;;;21.86;38.06
75196;BME280;63773;42.282;22.782;2023-04-21T10:24:39;95991.47;;;21.44;37.28
75196;BME280;63773;42.282;22.782;2023-04-21T10:27:08;95971.50;;;21.54;37.47
75196;BME280;63773;42.282;22.782;2023-04-21T10:29:34;95980.19;;;21.85;37.26
75196;BME280;63773;42.282;22.782;2023-04-21T10:32:00;95979.72;;;21.39;35.10
75196;BME280;63773;42.282;22.782;2023-04-21T10:39:32;95975.34;;;20.76;37.27
75196;BME280;63773;42.282;22.782;2023-04-21T10:42:27;95946.81;;;21.53;31.35
75196;BME280;63773;42.282;22.782;2023-04-21T10:45:00;95966.00;;;21.78;31.71
75196;BME280;63773;42.282;22.782;2023-04-21T10:47:36;95966.13;;;21.37;33.03
75196;BME280;63773;42.282;22.782;2023-04-21T10:50:22;95970.91;;;20.95;32.28
75196;BME280;63773;42.282;22.782;2023-04-21T10:55:30;95957.88;;;22.82;32.46
75196;BME280;63773;42.282;22.782;2023-04-21T10:57:55;95951.31;;;23.30;31.76
75196;BME280;63773;42.282;22.782;2023-04-21T11:00:23;95959.31;;;23.04;31.99
75196;BME280;63773;42.282;22.782;2023-04-21T11:02:56;95962.13;;;22.28;31.69
75196;BME280;63773;42.282;22.782;2023-04-21T11:05:48;95953.28;;;22.14;31.60
75196;BME280;63773;42.282;22.782;2023-04-21T11:08:14;95948.31;;;22.95;32.56
75196;BME280;63773;42.282;22.782;2023-04-21T11:10:55;95940.38;;;22.97;29.71
75196;BME280;63773;42.282;22.782;2023-04-21T11:13:26;95946.28;;;23.64;32.86
75196;BME280;63773;42.282;22.782;2023-04-21T11:16:04;95921.88;;;23.76;100.00
75196;BME280;63773;42.282;22.782;2023-04-21T11:18:38;60326.22;;;-142.42;100.00
75196;BME280;63773;42.282;22.782;2023-04-21T11:23:33;60326.22;;;-142.42;100.00
75196;BME280;63773;42.282;22.782;2023-04-21T11:25:59;60326.22;;;-142.42;100.00
75196;BME280;63773;42.282;22.782;2023-04-21T11:28:24;60326.22;;;-142.42;100.00
75196;BME280;63773;42.282;22.782;2023-04-21T11:30:50;60326.22;;;-142.42;100.00
75196;BME280;63773;42.282;22.782;2023-04-21T11:33:15;60326.22;;;-142.42;100.00
75196;BME280;63773;42.282;22.782;2023-04-21T11:35:42;60326.22;;;-142.42;100.00
75196;BME280;63773;42.282;22.782;2023-04-21T11:38:07;60326.22;;;-142.42;100.00
75196;BME280;63773;42.282;22.782;2023-04-21T11:40:46;60326.22;;;-142.42;100.00
75196;BME280;63773;42.282;22.782;2023-04-21T11:43:12;60326.22;;;-142.42;100.00
75196;BME280;63773;42.282;22.782;2023-04-21T11:45:39;60326.22;;;-142.42;100.00
75196;BME280;63773;42.282;22.782;2023-04-21T11:48:14;60326.22;;;-142.42;100.00
75196;BME280;63773;42.282;22.782;2023-04-21T11:50:46;60326.22;;;-142.42;100.00
75196;BME280;63773;42.282;22.782;2023-04-21T11:53:13;60326.22;;;-142.42;100.00
75196;BME280;63773;42.282;22.782;2023-04-21T11:55:45;60326.22;;;-142.42;100.00
75196;BME280;63773;42.282;22.782;2023-04-21T11:58:11;60326.22;;;-142.42;100.00
75196;BME280;63773;42.282;22.782;2023-04-21T12:00:43;60326.22;;;-142.42;100.00
75196;BME280;63773;42.282;22.782;2023-04-21T12:03:09;60326.22;;;-142.42;100.00
75196;BME280;63773;42.282;22.782;2023-04-21T12:05:36;60326.22;;;-142.42;100.00
75196;BME280;63773;42.282;22.782;2023-04-21T12:08:02;60326.22;;;-142.42;100.00
75196;BME280;63773;42.282;22.782;2023-04-21T12:10:31;60326.22;;;-142.42;100.00
75196;BME280;63773;42.282;22.782;2023-04-21T12:12:57;60326.22;;;-142.42;100.00
75196;BME280;63773;42.282;22.782;2023-04-21T12:15:22;60326.22;;;-142.42;100.00
75196;BME280;63773;42.282;22.782;2023-04-21T12:17:52;60326.22;;;-142.42;100.00
75196;BME280;63773;42.282;22.782;2023-04-21T12:20:23;60326.22;;;-142.42;100.00
75196;BME280;63773;42.282;22.782;2023-04-21T12:22:49;60326.22;;;-142.42;100.00
75196;BME280;63773;42.282;22.782;2023-04-21T12:25:15;60326.22;;;-142.42;100.00
75196;BME280;63773;42.282;22.782;2023-04-21T12:27:48;60326.22;;;-142.42;100.00
75196;BME280;63773;42.282;22.782;2023-04-21T12:30:13;60326.22;;;-142.42;100.00
75196;BME280;63773;42.282;22.782;2023-04-21T12:32:39;60326.22;;;-142.42;100.00
75196;BME280;63773;42.282;22.782;2023-04-21T12:35:05;60326.22;;;-142.42;100.00
75196;BME280;63773;42.282;22.782;2023-04-21T12:37:30;60326.22;;;-142.42;100.00
75196;BME280;63773;42.282;22.782;2023-04-21T12:39:56;60326.22;;;-142.42;100.00
75196;BME280;63773;42.282;22.782;2023-04-21T12:42:21;60326.22;;;-142.42;100.00
75196;BME280;63773;42.282;22.782;2023-04-21T12:44:47;60326.22;;;-142.42;100.00
75196;BME280;63773;42.282;22.782;2023-04-21T12:47:13;60326.22;;;-142.42;100.00
75196;BME280;63773;42.282;22.782;2023-04-21T12:49:38;60326.22;;;-142.42;100.00
75196;BME280;63773;42.282;22.782;2023-04-21T12:52:04;60326.22;;;-142.42;100.00
75196;BME280;63773;42.282;22.782;2023-04-21T12:54:30;60326.22;;;-142.42;100.00
75196;BME280;63773;42.282;22.782;2023-04-21T12:56:55;60326.22;;;-142.42;100.00
75196;BME280;63773;42.282;22.782;2023-04-21T12:59:22;60326.22;;;-142.42;100.00